Terminal Aerodrome Forecast
Issued by NWS

Home | Current Version | Previous Version | Text Only | Print | Product List | Glossary On
Versions: 1 2 3 4 5 6 7 8 9 10 11 12 13 14 15 16 17 18 19 20
378
FTUS43 KICT 221742 AAA
TAFCNU
TAF AMD
KCNU 221742Z 2218/2318 02013KT 2SM RA OVC005
      TEMPO 2218/2222 5SM -RA SCT008 OVC013
     FM222200 01009KT P6SM SCT013 OVC025
     FM230100 01009KT P6SM OVC040=

USA.gov is the U.S. government's official web portal to all federal, state and local government web resources and services.